createdAt,value
2022-08-22T00:01:50.798Z,93.40
2022-08-22T00:02:47.781Z,84.40
2022-08-22T00:04:36.979Z,93.40
2022-08-22T00:07:22.341Z,93.40
2022-08-22T00:09:58.048Z,93.40
2022-08-22T00:12:32.084Z,93.40
2022-08-22T00:15:04.665Z,93.40
2022-08-22T00:17:52.820Z,93.40
2022-08-22T00:20:37.917Z,93.40
2022-08-22T00:23:30.507Z,93.50
2022-08-22T00:26:06.759Z,93.50
2022-08-22T00:28:53.380Z,93.40
2022-08-22T00:31:28.891Z,93.40
2022-08-22T00:34:13.895Z,93.40
2022-08-22T00:36:40.542Z,93.50
2022-08-22T00:39:19.183Z,93.50
2022-08-22T00:42:30.300Z,93.50
2022-08-22T00:45:12.458Z,93.50
2022-08-22T00:47:44.757Z,93.50
2022-08-22T00:50:29.203Z,93.50
2022-08-22T00:53:14.441Z,93.50
2022-08-22T00:55:59.639Z,93.60
2022-08-22T00:58:35.202Z,93.60
2022-08-22T01:01:10.129Z,93.60
2022-08-22T01:03:42.470Z,93.60
2022-08-22T01:06:27.643Z,93.70
2022-08-22T01:09:03.701Z,93.70
2022-08-22T01:11:43.743Z,93.70
2022-08-22T01:14:34.175Z,93.70
2022-08-22T01:17:18.401Z,93.70
2022-08-22T01:19:48.778Z,93.80
2022-08-22T01:22:33.918Z,94.10
2022-08-22T01:25:19.987Z,93.70
2022-08-22T01:28:05.225Z,93.80
2022-08-22T01:30:41.979Z,93.90
2022-08-22T01:33:30.396Z,93.90
2022-08-22T01:35:58.857Z,93.90
2022-08-22T01:38:25.658Z,93.90
2022-08-22T01:40:53.621Z,94.00
2022-08-22T01:43:59.150Z,93.90
2022-08-22T01:46:44.790Z,93.90
2022-08-22T01:49:24.553Z,94.00
2022-08-22T01:52:14.952Z,94.00
2022-08-22T01:54:58.401Z,94.10
2022-08-22T01:57:26.243Z,94.10
2022-08-22T01:59:55.339Z,94.10
2022-08-22T02:02:21.896Z,94.10
2022-08-22T02:04:55.132Z,94.10
2022-08-22T02:07:32.131Z,94.10
2022-08-22T02:10:13.861Z,94.10
2022-08-22T02:12:40.438Z,94.10
2022-08-22T02:15:25.802Z,94.10
2022-08-22T02:17:59.054Z,94.20
2022-08-22T02:20:34.068Z,94.20
2022-08-22T02:23:06.186Z,94.20
2022-08-22T02:26:05.211Z,94.20
2022-08-22T02:28:31.784Z,94.20
2022-08-22T02:31:11.857Z,94.30
2022-08-22T02:33:46.250Z,94.30
2022-08-22T02:36:31.458Z,94.30
2022-08-22T02:39:13.490Z,94.30
2022-08-22T02:41:54.296Z,94.30
2022-08-22T02:44:26.423Z,94.30
2022-08-22T02:47:02.648Z,94.30
2022-08-22T02:49:47.897Z,94.30
2022-08-22T02:52:18.857Z,94.30
2022-08-22T02:54:45.569Z,94.40
2022-08-22T02:57:16.995Z,94.40
2022-08-22T02:59:55.931Z,94.40
2022-08-22T03:02:28.259Z,94.40
2022-08-22T03:05:01.086Z,94.50
2022-08-22T03:07:33.773Z,94.40
2022-08-22T03:10:03.477Z,94.50
2022-08-22T03:12:39.942Z,94.50
2022-08-22T03:15:16.265Z,94.40
2022-08-22T03:17:49.568Z,94.50
2022-08-22T03:20:35.208Z,94.40
2022-08-22T03:23:24.002Z,94.40
2022-08-22T03:25:56.230Z,94.50
2022-08-22T03:28:23.238Z,94.40
2022-08-22T03:30:56.104Z,94.40
2022-08-22T03:33:27.803Z,94.40
2022-08-22T03:36:17.580Z,94.40
2022-08-22T03:39:02.743Z,94.40
2022-08-22T03:41:33.966Z,94.40
2022-08-22T03:44:09.057Z,94.40
2022-08-22T03:46:45.819Z,94.40
2022-08-22T03:49:30.978Z,94.40
2022-08-22T03:52:16.437Z,94.40
2022-08-22T03:54:54.846Z,94.40
2022-08-22T03:57:24.500Z,94.70
2022-08-22T03:59:54.078Z,94.40
2022-08-22T04:02:49.652Z,94.40
2022-08-22T04:05:18.973Z,94.50
2022-08-22T04:08:13.663Z,94.50
2022-08-22T04:11:02.493Z,94.50
2022-08-22T04:13:48.045Z,94.50
2022-08-22T04:16:40.375Z,94.60
2022-08-22T04:19:25.534Z,94.60
2022-08-22T04:22:12.072Z,94.70
2022-08-22T04:24:48.935Z,94.60
2022-08-22T04:27:25.705Z,94.60
2022-08-22T04:29:58.513Z,94.60
2022-08-22T04:32:29.648Z,94.70
2022-08-22T04:34:56.233Z,94.70
2022-08-22T04:37:36.241Z,94.80
2022-08-22T04:40:07.349Z,95.10
2022-08-22T04:42:42.801Z,94.80
2022-08-22T04:45:12.639Z,94.80
2022-08-22T04:47:55.580Z,94.80
2022-08-22T04:50:25.643Z,94.80
2022-08-22T04:53:04.458Z,94.90
2022-08-22T04:55:34.160Z,94.90
2022-08-22T04:58:06.887Z,94.90
2022-08-22T05:00:39.987Z,94.90
2022-08-22T05:03:09.494Z,94.90
2022-08-22T05:05:38.112Z,95.00
2022-08-22T05:08:05.850Z,95.00
2022-08-22T05:10:39.884Z,95.00
2022-08-22T05:13:09.596Z,95.00
2022-08-22T05:15:37.975Z,95.10
2022-08-22T05:18:07.807Z,95.10
2022-08-22T05:20:34.955Z,95.10
2022-08-22T05:23:17.194Z,95.20
2022-08-22T05:25:45.518Z,95.20
2022-08-22T05:28:15.786Z,95.30
2022-08-22T05:30:43.450Z,95.20
2022-08-22T05:33:19.374Z,95.30
2022-08-22T05:35:50.764Z,95.30
2022-08-22T05:38:21.215Z,95.30
2022-08-22T05:40:53.117Z,95.30
2022-08-22T05:43:20.780Z,95.20
2022-08-22T05:45:47.618Z,95.30
2022-08-22T05:48:22.721Z,95.30
2022-08-22T05:50:53.603Z,95.40
2022-08-22T05:53:33.233Z,95.40
2022-08-22T05:56:00.168Z,95.50
2022-08-22T05:58:39.549Z,95.50
2022-08-22T06:01:18.606Z,95.60
2022-08-22T06:03:55.512Z,95.60
2022-08-22T06:06:24.931Z,95.60
2022-08-22T06:09:01.452Z,95.60
2022-08-22T06:11:37.842Z,95.60
2022-08-22T06:14:05.939Z,95.60
2022-08-22T06:16:47.369Z,95.60
2022-08-22T06:19:19.676Z,95.60
2022-08-22T06:21:49.462Z,95.60
2022-08-22T06:24:21.203Z,95.60
2022-08-22T06:26:51.204Z,95.60
2022-08-22T06:29:34.156Z,95.60
2022-08-22T06:32:04.100Z,95.60
2022-08-22T06:34:35.987Z,95.60
2022-08-22T06:37:04.419Z,95.60
2022-08-22T06:39:33.393Z,95.70
2022-08-22T06:42:01.227Z,95.70
2022-08-22T06:44:31.801Z,95.70
2022-08-22T06:47:00.261Z,95.70
2022-08-22T06:49:28.073Z,95.80
2022-08-22T06:52:00.025Z,95.70
2022-08-22T06:54:32.507Z,95.70
2022-08-22T06:57:01.793Z,95.70
2022-08-22T06:59:30.393Z,95.70
2022-08-22T07:02:04.160Z,95.70
2022-08-22T07:04:31.188Z,95.70
2022-08-22T07:06:59.822Z,95.70
2022-08-22T07:09:32.281Z,95.70
2022-08-22T07:12:00.995Z,95.70
2022-08-22T07:14:54.030Z,95.80
2022-08-22T07:17:28.619Z,95.80
2022-08-22T07:19:58.208Z,95.80
2022-08-22T07:22:26.839Z,95.80
2022-08-22T07:24:55.715Z,95.80
2022-08-22T07:27:41.082Z,95.70
2022-08-22T07:30:11.532Z,95.70
2022-08-22T07:32:57.070Z,95.70
2022-08-22T07:35:52.986Z,95.60
2022-08-22T07:38:24.529Z,95.70
2022-08-22T07:41:09.856Z,95.60
2022-08-22T07:43:45.418Z,95.60
2022-08-22T07:46:15.039Z,95.60
2022-08-22T07:49:07.758Z,95.60
2022-08-22T07:51:39.431Z,95.50
2022-08-22T07:54:07.715Z,95.80
2022-08-22T07:56:37.279Z,95.50
2022-08-22T07:59:13.233Z,95.40
2022-08-22T08:01:45.781Z,95.40
2022-08-22T08:04:17.425Z,95.40
2022-08-22T08:06:47.373Z,95.30
2022-08-22T08:09:17.530Z,95.30
2022-08-22T08:11:44.978Z,95.30
2022-08-22T08:14:14.336Z,95.20
2022-08-22T08:16:48.589Z,95.20
2022-08-22T08:19:16.899Z,95.10
2022-08-22T08:21:49.599Z,95.00
2022-08-22T08:24:19.638Z,95.10
2022-08-22T08:27:10.393Z,95.00
2022-08-22T08:29:37.475Z,94.90
2022-08-22T08:32:07.849Z,94.60
2022-08-22T08:34:35.951Z,94.80
2022-08-22T08:37:07.012Z,94.80
2022-08-22T08:39:37.142Z,94.80
2022-08-22T08:42:17.443Z,94.60
2022-08-22T08:44:47.416Z,94.20
2022-08-22T08:47:26.727Z,94.30
2022-08-22T08:50:12.404Z,94.20
2022-08-22T08:52:52.925Z,93.90
2022-08-22T08:55:29.333Z,94.00
2022-08-22T08:57:58.691Z,93.90
2022-08-22T09:00:45.874Z,93.80
2022-08-22T09:03:34.399Z,93.70
2022-08-22T09:06:11.141Z,93.10
2022-08-22T09:08:42.848Z,93.50
2022-08-22T09:11:19.399Z,93.50
2022-08-22T09:14:00.062Z,93.10
2022-08-22T09:16:29.818Z,93.10
2022-08-22T09:19:13.594Z,92.90
2022-08-22T09:21:49.384Z,92.90
2022-08-22T09:24:39.551Z,92.70
2022-08-22T09:27:31.500Z,92.60
2022-08-22T09:30:11.791Z,92.30
2022-08-22T09:32:38.778Z,92.50
2022-08-22T09:35:26.142Z,92.40
2022-08-22T09:38:12.207Z,92.30
2022-08-22T09:40:44.707Z,92.30
2022-08-22T09:43:24.459Z,92.20
2022-08-22T09:46:02.056Z,91.70
2022-08-22T09:48:38.190Z,91.40
2022-08-22T09:51:32.396Z,91.50
2022-08-22T09:53:59.825Z,91.20
2022-08-22T09:56:35.464Z,91.30
2022-08-22T09:59:06.688Z,91.10
2022-08-22T10:01:42.576Z,91.10
2022-08-22T10:04:19.459Z,91.00
2022-08-22T10:07:11.190Z,90.90
2022-08-22T10:10:03.627Z,86.00
2022-08-22T10:12:36.544Z,88.70
2022-08-22T10:15:07.891Z,84.50
2022-08-22T10:17:41.083Z,88.40
2022-08-22T10:20:09.024Z,87.50
2022-08-22T10:22:41.362Z,86.30
2022-08-22T10:25:29.405Z,86.50
2022-08-22T10:28:03.608Z,86.10
2022-08-22T10:30:38.022Z,84.70
2022-08-22T10:33:14.231Z,84.10
2022-08-22T10:35:47.745Z,84.30
2022-08-22T10:38:20.446Z,85.10
2022-08-22T10:40:57.825Z,83.90
2022-08-22T10:43:31.290Z,83.30
2022-08-22T10:46:01.710Z,82.40
2022-08-22T10:48:43.403Z,82.50
2022-08-22T10:51:24.532Z,82.40
2022-08-22T10:54:08.869Z,82.70
2022-08-22T10:56:40.615Z,81.80
2022-08-22T10:59:10.342Z,75.50
2022-08-22T11:01:47.842Z,75.60
2022-08-22T11:04:28.028Z,77.40
2022-08-22T11:06:54.942Z,73.80
2022-08-22T11:09:25.047Z,75.50
2022-08-22T11:12:20.417Z,75.90
2022-08-22T11:15:03.061Z,76.70
2022-08-22T11:17:53.958Z,76.50
2022-08-22T11:20:25.418Z,75.80
2022-08-22T11:23:12.233Z,75.60
2022-08-22T11:25:53.747Z,75.80
2022-08-22T11:28:29.447Z,74.40
2022-08-22T11:31:16.153Z,74.60
2022-08-22T11:33:58.095Z,73.00
2022-08-22T11:36:31.166Z,73.60
2022-08-22T11:39:06.539Z,73.50
2022-08-22T11:41:41.196Z,72.90
2022-08-22T11:44:20.344Z,73.70
2022-08-22T11:46:50.248Z,73.40
2022-08-22T11:49:34.961Z,70.80
2022-08-22T11:52:09.827Z,72.20
2022-08-22T11:54:37.213Z,71.90
2022-08-22T11:57:08.905Z,72.50
2022-08-22T11:59:55.769Z,73.20
2022-08-22T12:02:31.636Z,73.60
2022-08-22T12:05:05.203Z,73.20
2022-08-22T12:07:36.933Z,70.90
2022-08-22T12:10:27.485Z,71.00
2022-08-22T12:13:20.743Z,70.70
2022-08-22T12:16:12.687Z,70.90
2022-08-22T12:18:53.044Z,70.80
2022-08-22T12:21:21.561Z,71.00
2022-08-22T12:23:54.103Z,71.10
2022-08-22T12:26:22.016Z,70.90
2022-08-22T12:29:15.569Z,67.70
2022-08-22T12:31:58.527Z,70.20
2022-08-22T12:34:25.102Z,71.10
2022-08-22T12:36:51.670Z,70.60
2022-08-22T12:39:27.460Z,69.10
2022-08-22T12:42:07.944Z,68.80
2022-08-22T12:44:49.561Z,66.40
2022-08-22T12:47:37.743Z,63.30
2022-08-22T12:50:23.861Z,62.60
2022-08-22T12:52:57.805Z,60.60
2022-08-22T12:55:32.511Z,61.50
2022-08-22T12:58:04.025Z,60.80
2022-08-22T13:00:34.643Z,61.70
2022-08-22T13:03:06.807Z,62.60
2022-08-22T13:05:40.906Z,62.00
2022-08-22T13:08:12.552Z,62.50
2022-08-22T13:10:46.693Z,63.40
2022-08-22T13:13:15.781Z,64.20
2022-08-22T13:15:54.089Z,65.20
2022-08-22T13:18:31.169Z,66.00
2022-08-22T13:21:00.635Z,66.10
2022-08-22T13:23:30.675Z,65.00
2022-08-22T13:26:33.521Z,64.50
2022-08-22T13:29:24.715Z,64.20
2022-08-22T13:31:53.418Z,61.20
2022-08-22T13:34:44.461Z,61.70
2022-08-22T13:37:24.554Z,54.60
2022-08-22T13:39:53.549Z,57.80
2022-08-22T13:42:30.276Z,58.20
2022-08-22T13:44:59.551Z,58.70
2022-08-22T13:47:31.796Z,58.70
2022-08-22T13:50:05.006Z,58.70
2022-08-22T13:52:38.009Z,58.50
2022-08-22T13:55:12.568Z,56.80
2022-08-22T13:57:40.563Z,56.60
2022-08-22T14:00:28.760Z,56.60
2022-08-22T14:02:56.087Z,56.70
2022-08-22T14:05:31.293Z,56.30
2022-08-22T14:08:04.796Z,55.90
2022-08-22T14:10:44.512Z,55.60
2022-08-22T14:13:22.878Z,55.00
2022-08-22T14:15:57.569Z,54.80
2022-08-22T14:18:31.547Z,54.60
2022-08-22T14:21:17.146Z,54.90
2022-08-22T14:23:44.784Z,53.70
2022-08-22T14:26:22.934Z,53.20
2022-08-22T14:29:01.211Z,48.90
2022-08-22T14:31:28.793Z,51.20
2022-08-22T14:33:57.587Z,44.10
2022-08-22T14:36:47.525Z,47.50
2022-08-22T14:39:24.398Z,47.20
2022-08-22T14:41:58.649Z,49.00
2022-08-22T14:44:37.680Z,49.50
2022-08-22T14:47:32.641Z,50.00
2022-08-22T14:49:55.310Z,49.70
2022-08-22T14:52:41.700Z,49.60
2022-08-22T14:55:17.703Z,46.10
2022-08-22T14:57:47.586Z,47.30
2022-08-22T15:00:23.699Z,46.80
2022-08-22T15:03:05.856Z,47.70
2022-08-22T15:05:45.127Z,46.50
2022-08-22T15:08:19.611Z,47.20
2022-08-22T15:11:04.081Z,46.00
2022-08-22T15:13:31.171Z,46.80
2022-08-22T15:16:04.738Z,43.90
2022-08-22T15:18:35.350Z,44.60
2022-08-22T15:21:10.155Z,45.50
2022-08-22T15:23:45.412Z,45.50
2022-08-22T15:26:20.766Z,43.90
2022-08-22T15:28:53.557Z,41.60
2022-08-22T15:31:20.350Z,41.30
2022-08-22T15:33:47.685Z,41.10
2022-08-22T15:36:20.032Z,41.20
2022-08-22T15:38:53.664Z,40.60
2022-08-22T15:41:36.695Z,39.90
2022-08-22T15:44:15.075Z,39.60
2022-08-22T15:47:00.271Z,39.70
2022-08-22T15:49:32.061Z,39.90
2022-08-22T15:51:58.597Z,40.60
2022-08-22T15:54:27.925Z,40.50
2022-08-22T15:57:09.910Z,40.30
2022-08-22T15:59:56.839Z,39.60
2022-08-22T16:02:34.925Z,39.10
2022-08-22T16:05:03.924Z,38.10
2022-08-22T16:07:34.194Z,36.90
2022-08-22T16:10:02.994Z,35.60
2022-08-22T16:12:32.326Z,35.10
2022-08-22T16:15:00.103Z,34.60
2022-08-22T16:17:26.686Z,34.30
2022-08-22T16:20:15.831Z,33.90
2022-08-22T16:22:58.536Z,33.20
2022-08-22T16:25:43.956Z,32.60
2022-08-22T16:28:36.072Z,31.80
2022-08-22T16:31:18.899Z,31.70
2022-08-22T16:33:46.018Z,29.40
2022-08-22T16:36:15.679Z,30.00
2022-08-22T16:38:44.385Z,29.50
2022-08-22T16:41:43.465Z,29.40
2022-08-22T16:44:14.106Z,29.30
2022-08-22T16:46:45.571Z,29.50
2022-08-22T16:49:23.138Z,29.40
2022-08-22T16:52:28.419Z,29.40
2022-08-22T16:55:02.731Z,29.30
2022-08-22T16:57:29.298Z,29.70
2022-08-22T16:59:59.103Z,30.00
2022-08-22T17:02:39.955Z,30.50
2022-08-22T17:05:06.570Z,31.10
2022-08-22T17:07:33.168Z,31.80
2022-08-22T17:10:11.673Z,32.50
2022-08-22T17:12:41.667Z,33.40
2022-08-22T17:15:09.088Z,34.10
2022-08-22T17:17:54.590Z,34.90
2022-08-22T17:20:47.409Z,35.60
2022-08-22T17:23:23.084Z,36.20
2022-08-22T17:26:02.382Z,37.00
2022-08-22T17:28:35.179Z,37.80
2022-08-22T17:31:10.950Z,38.60
2022-08-22T17:33:40.534Z,39.30
2022-08-22T17:36:21.738Z,40.20
2022-08-22T17:38:53.903Z,40.80
2022-08-22T17:41:33.603Z,41.50
2022-08-22T17:44:24.914Z,42.10
2022-08-22T17:46:57.171Z,42.80
2022-08-22T17:49:26.959Z,43.80
2022-08-22T17:51:57.137Z,44.60
2022-08-22T17:54:23.710Z,45.20
2022-08-22T17:57:05.792Z,45.70
2022-08-22T17:59:45.750Z,46.30
2022-08-22T18:02:31.771Z,46.80
2022-08-22T18:05:08.034Z,47.70
2022-08-22T18:07:46.315Z,48.50
2022-08-22T18:10:14.495Z,48.90
2022-08-22T18:13:04.755Z,49.60
2022-08-22T18:15:45.670Z,50.20
2022-08-22T18:18:15.331Z,50.60
2022-08-22T18:20:49.721Z,51.30
2022-08-22T18:23:35.457Z,51.90
2022-08-22T18:26:18.044Z,52.60
2022-08-22T18:28:56.887Z,53.20
2022-08-22T18:31:23.447Z,53.60
2022-08-22T18:33:54.729Z,54.00
2022-08-22T18:36:26.403Z,54.60
2022-08-22T18:38:55.311Z,55.00
2022-08-22T18:41:28.612Z,55.40
2022-08-22T18:43:59.058Z,55.80
2022-08-22T18:46:37.899Z,56.10
2022-08-22T18:49:17.525Z,56.50
2022-08-22T18:51:44.294Z,56.90
2022-08-22T18:54:11.368Z,57.20
2022-08-22T18:56:58.151Z,57.60
2022-08-22T18:59:36.106Z,58.00
2022-08-22T19:02:21.235Z,58.40
2022-08-22T19:04:50.792Z,58.80
2022-08-22T19:07:38.338Z,59.30
2022-08-22T19:10:22.794Z,59.80
2022-08-22T19:12:55.234Z,60.00
2022-08-22T19:15:40.824Z,60.30
2022-08-22T19:18:07.459Z,60.50
2022-08-22T19:20:57.115Z,61.00
2022-08-22T19:23:32.847Z,61.30
2022-08-22T19:26:18.446Z,61.50
2022-08-22T19:28:45.198Z,61.80
2022-08-22T19:31:24.114Z,62.30
2022-08-22T19:34:10.763Z,62.60
2022-08-22T19:36:37.357Z,62.80
2022-08-22T19:39:08.921Z,63.10
2022-08-22T19:41:39.379Z,63.20
2022-08-22T19:44:09.963Z,63.40
2022-08-22T19:46:38.000Z,63.60
2022-08-22T19:49:06.314Z,63.90
2022-08-22T19:51:33.556Z,64.20
2022-08-22T19:54:06.198Z,64.50
2022-08-22T19:56:35.873Z,64.80
2022-08-22T19:59:24.000Z,65.10
2022-08-22T20:02:09.523Z,65.30
2022-08-22T20:04:41.696Z,65.50
2022-08-22T20:07:25.956Z,65.80
2022-08-22T20:09:58.567Z,66.10
2022-08-22T20:12:41.717Z,66.50
2022-08-22T20:15:18.050Z,66.70
2022-08-22T20:18:11.599Z,67.00
2022-08-22T20:20:38.108Z,67.30
2022-08-22T20:23:25.098Z,67.70
2022-08-22T20:25:54.271Z,67.80
2022-08-22T20:28:29.923Z,68.00
2022-08-22T20:30:58.417Z,68.20
2022-08-22T20:33:27.796Z,68.50
2022-08-22T20:35:56.058Z,68.80
2022-08-22T20:38:24.462Z,68.90
2022-08-22T20:40:59.594Z,69.00
2022-08-22T20:43:35.335Z,69.00
2022-08-22T20:46:17.288Z,69.20
2022-08-22T20:48:44.781Z,69.40
2022-08-22T20:51:13.768Z,69.60
2022-08-22T20:53:40.394Z,69.60
2022-08-22T20:56:08.065Z,69.80
2022-08-22T20:58:39.674Z,70.00
2022-08-22T21:01:07.289Z,70.30
2022-08-22T21:03:44.484Z,70.50
2022-08-22T21:06:13.208Z,70.50
2022-08-22T21:08:40.518Z,70.60
2022-08-22T21:11:26.338Z,70.70
2022-08-22T21:13:53.367Z,70.90
2022-08-22T21:16:33.264Z,71.10
2022-08-22T21:19:03.177Z,71.30
2022-08-22T21:21:33.270Z,71.10
2022-08-22T21:24:07.422Z,71.20
2022-08-22T21:26:38.285Z,71.30
2022-08-22T21:29:14.259Z,71.20
2022-08-22T21:31:52.702Z,71.20
2022-08-22T21:34:21.544Z,71.30
2022-08-22T21:36:53.145Z,71.60
2022-08-22T21:39:28.624Z,71.90
2022-08-22T21:42:01.159Z,72.30
2022-08-22T21:44:27.729Z,72.50
2022-08-22T21:46:54.735Z,72.90
2022-08-22T21:49:23.100Z,73.00
2022-08-22T21:51:50.334Z,73.30
2022-08-22T21:54:27.808Z,73.50
2022-08-22T21:56:55.661Z,73.60
2022-08-22T21:59:50.840Z,73.50
2022-08-22T22:02:25.766Z,73.70
2022-08-22T22:04:54.712Z,73.70
2022-08-22T22:07:23.633Z,73.90
2022-08-22T22:09:52.991Z,74.10
2022-08-22T22:12:22.472Z,74.20
2022-08-22T22:14:49.556Z,74.50
2022-08-22T22:17:16.769Z,74.70
2022-08-22T22:19:43.352Z,74.90
2022-08-22T22:22:10.176Z,75.40
2022-08-22T22:24:37.099Z,75.60
2022-08-22T22:27:04.543Z,76.00
2022-08-22T22:29:32.013Z,76.20
2022-08-22T22:31:58.647Z,76.50
2022-08-22T22:34:25.725Z,76.70
2022-08-22T22:36:53.424Z,76.80
2022-08-22T22:39:20.019Z,76.90
2022-08-22T22:41:46.604Z,77.30
2022-08-22T22:44:13.351Z,77.40
2022-08-22T22:46:39.963Z,77.80
2022-08-22T22:49:06.569Z,78.10
2022-08-22T22:51:33.254Z,78.30
2022-08-22T22:53:59.982Z,78.60
2022-08-22T22:56:27.929Z,78.80
2022-08-22T22:59:01.034Z,78.80
2022-08-22T23:01:58.685Z,79.00
2022-08-22T23:04:25.321Z,79.10
2022-08-22T23:06:51.912Z,79.20
2022-08-22T23:09:18.600Z,79.40
2022-08-22T23:11:45.536Z,79.50
2022-08-22T23:14:12.191Z,79.70
2022-08-22T23:16:39.355Z,79.90
2022-08-22T23:19:10.190Z,80.10
2022-08-22T23:21:36.767Z,80.30
2022-08-22T23:24:04.245Z,80.40
2022-08-22T23:26:31.106Z,80.70
2022-08-22T23:28:58.319Z,80.90
2022-08-22T23:31:27.907Z,81.10
2022-08-22T23:33:55.291Z,81.20
2022-08-22T23:36:22.783Z,81.40
2022-08-22T23:38:50.444Z,81.60
2022-08-22T23:41:18.253Z,81.90
2022-08-22T23:43:45.608Z,82.00
2022-08-22T23:46:13.118Z,82.10
2022-08-22T23:48:39.897Z,82.20
2022-08-22T23:51:06.525Z,82.10
2022-08-22T23:53:33.369Z,82.10
2022-08-22T23:56:19.501Z,82.20
2022-08-22T23:58:47.419Z,83.10
